Time;durP1;ratioP1;P1;durP2;ratioP2;P2;SDS_P1;SDS_P2;PMS_P1;PMS_P2;Temp;Humidity;BMP_temperature;BMP_pressure;BME280_temperature;BME280_humidity;BME280_pressure;Samples;Min_cycle;Max_cycle;Signal;HPM_P1;HPM_P2
2021/12/22 00:00:49;;;;;;;31.73;22.05;;;-3275.40;89.40;;;;;;5099558;28;20078;-43
2021/12/22 00:03:17;;;;;;;37.20;23.42;;;-3275.30;89.30;;;;;;5106323;28;20349;-43
2021/12/22 00:05:46;;;;;;;30.52;22.42;;;-3275.30;89.30;;;;;;5077173;28;20115;-42
2021/12/22 00:08:14;;;;;;;31.20;21.70;;;-3275.30;89.30;;;;;;5101175;28;20349;-44
2021/12/22 00:10:49;;;;;;;32.15;23.80;;;-3275.30;89.40;;;;;;5100968;28;20032;-43
2021/12/22 00:13:16;;;;;;;30.65;21.75;;;-3275.30;89.40;;;;;;5106119;28;20476;-43
2021/12/22 00:15:42;;;;;;;36.38;23.85;;;-3275.30;89.40;;;;;;5095887;28;20053;-43
2021/12/22 00:18:10;;;;;;;34.20;24.17;;;-3275.30;89.50;;;;;;5106756;28;20039;-46
2021/12/22 00:20:36;;;;;;;31.67;23.20;;;-3275.30;89.40;;;;;;5111349;28;20028;-42
2021/12/22 00:23:05;;;;;;;30.77;22.33;;;-3275.30;89.60;;;;;;5094342;28;20039;-50
2021/12/22 00:25:32;;;;;;;30.77;21.92;;;-3275.40;89.50;;;;;;5096174;28;20522;-42
2021/12/22 00:27:59;;;;;;;30.05;22.23;;;-3275.30;89.50;;;;;;5108094;28;20036;-46
2021/12/22 00:30:27;;;;;;;32.53;23.33;;;-3275.30;89.40;;;;;;5093653;28;20016;-44
2021/12/22 00:33:03;;;;;;;27.05;22.42;;;-3275.30;89.50;;;;;;5077209;28;20040;-44
2021/12/22 00:35:39;;;;;;;37.08;23.85;;;-3275.30;89.40;;;;;;5077214;28;20031;-46
2021/12/22 00:38:07;;;;;;;25.70;21.20;;;-3275.30;89.60;;;;;;5108080;28;20472;-42
2021/12/22 00:40:33;;;;;;;32.92;22.17;;;-3275.30;89.50;;;;;;5108607;28;20047;-44
2021/12/22 00:43:00;;;;;;;29.23;22.10;;;-3275.20;89.50;;;;;;5112922;28;20097;-42
2021/12/22 00:45:28;;;;;;;28.95;21.80;;;-3275.30;89.50;;;;;;5105033;28;20035;-46
2021/12/22 00:47:55;;;;;;;29.43;21.97;;;-3275.30;89.40;;;;;;5098310;28;20088;-44
2021/12/22 00:50:23;;;;;;;30.67;21.40;;;-3275.20;89.30;;;;;;5113562;28;20026;-43
2021/12/22 00:52:49;;;;;;;25.25;20.88;;;-3275.20;89.30;;;;;;5112957;28;20089;-44
2021/12/22 00:55:19;;;;;;;27.60;21.10;;;-3275.20;89.30;;;;;;5095756;28;20027;-46
2021/12/22 00:57:47;;;;;;;32.20;23.13;;;-3275.10;89.10;;;;;;5111916;28;20055;-49
2021/12/22 01:00:16;;;;;;;28.60;21.67;;;-3275.10;89.20;;;;;;5101295;28;20104;-45
2021/12/22 01:02:44;;;;;;;29.63;22.92;;;-3275.10;89.20;;;;;;5078473;28;20027;-50
2021/12/22 01:05:14;;;;;;;32.08;23.52;;;-3275.10;89.00;;;;;;5095314;28;20106;-43
2021/12/22 01:07:44;;;;;;;28.98;22.50;;;-3275.10;89.00;;;;;;5110148;28;20028;-42
2021/12/22 01:10:13;;;;;;;34.15;22.27;;;-3275.10;89.00;;;;;;5098576;28;20052;-44
2021/12/22 01:12:42;;;;;;;30.83;23.55;;;-3275.00;88.90;;;;;;5095553;28;20388;-42
2021/12/22 01:15:11;;;;;;;30.52;23.10;;;-3275.00;89.00;;;;;;5087537;28;20036;-44
2021/12/22 01:17:42;;;;;;;34.03;23.42;;;-3274.90;89.10;;;;;;5077656;28;20157;-43
2021/12/22 01:20:23;;;;;;;33.58;24.80;;;-3274.90;89.20;;;;;;5080593;28;20369;-43
2021/12/22 01:23:01;;;;;;;27.90;23.00;;;-3274.90;89.30;;;;;;5096766;28;20027;-43
2021/12/22 01:25:30;;;;;;;33.17;23.10;;;-3274.80;89.30;;;;;;5113325;28;20064;-45
2021/12/22 01:27:58;;;;;;;34.58;24.23;;;-3274.90;89.40;;;;;;5076913;28;20376;-45
2021/12/22 01:30:28;;;;;;;30.42;22.75;;;-3274.90;89.40;;;;;;5084594;28;20036;-49
2021/12/22 01:32:58;;;;;;;32.50;25.02;;;-3274.90;89.40;;;;;;5094112;28;20105;-47
2021/12/22 01:35:28;;;;;;;34.15;24.17;;;-3274.90;89.40;;;;;;5082176;28;20779;-44
2021/12/22 01:37:55;;;;;;;32.08;22.90;;;-3274.90;89.30;;;;;;5094137;28;20370;-43
2021/12/22 01:40:22;;;;;;;34.05;24.40;;;-3274.80;89.40;;;;;;5098260;28;20105;-44
2021/12/22 01:42:51;;;;;;;31.73;23.70;;;-3274.90;89.50;;;;;;5116447;28;20100;-44
2021/12/22 01:45:47;;;;;;;37.50;24.13;;;-3274.90;89.60;;;;;;5112507;28;20031;-42
2021/12/22 01:51:08;;;;;;;29.98;22.00;;;-3274.90;89.50;;;;;;5104591;28;20035;-45
2021/12/22 01:53:49;;;;;;;34.63;21.48;;;-3274.90;89.40;;;;;;5106852;28;20027;-47
2021/12/22 01:56:28;;;;;;;29.80;22.30;;;-3274.80;89.20;;;;;;5117058;28;20038;-42
2021/12/22 01:58:59;;;;;;;29.95;22.08;;;-3274.80;89.40;;;;;;5114923;28;20024;-42
2021/12/22 02:01:32;;;;;;;31.85;22.55;;;-3274.80;89.20;;;;;;5098965;28;20140;-46
2021/12/22 02:03:59;;;;;;;27.40;22.60;;;-3274.80;89.40;;;;;;5115058;28;20024;-42
2021/12/22 02:06:26;;;;;;;34.15;22.15;;;-3274.90;89.50;;;;;;5080330;28;20052;-44
2021/12/22 02:08:54;;;;;;;31.75;21.02;;;-3274.90;89.40;;;;;;5091330;28;20058;-46
2021/12/22 02:11:22;;;;;;;27.98;20.92;;;-3274.90;89.30;;;;;;5089961;28;20028;-48
2021/12/22 02:14:00;;;;;;;28.40;22.60;;;-3274.80;89.20;;;;;;5102417;28;20043;-45
2021/12/22 02:16:29;;;;;;;28.67;21.33;;;-3274.80;89.40;;;;;;5115955;28;20042;-42
2021/12/22 02:18:58;;;;;;;26.92;20.55;;;-3274.80;89.30;;;;;;5113839;28;20084;-49
2021/12/22 02:21:27;;;;;;;29.58;21.05;;;-3274.80;89.10;;;;;;5098588;28;20039;-43
2021/12/22 02:23:54;;;;;;;28.05;22.50;;;-3274.80;89.10;;;;;;5103135;28;20038;-44
2021/12/22 02:26:28;;;;;;;36.63;19.45;;;-3274.70;89.20;;;;;;5078512;28;20028;-43
2021/12/22 02:28:59;;;;;;;26.60;20.13;;;-3274.70;89.20;;;;;;5107175;28;20024;-45
2021/12/22 02:31:26;;;;;;;26.92;21.58;;;-3274.70;89.10;;;;;;5116269;28;20031;-42
2021/12/22 02:33:52;;;;;;;29.25;20.20;;;-3274.70;89.20;;;;;;5102791;28;20043;-43
2021/12/22 02:38:49;;;;;;;23.63;18.90;;;-3274.70;89.10;;;;;;5096882;28;20114;-44
2021/12/22 02:41:17;;;;;;;27.35;19.77;;;-3274.70;89.20;;;;;;5110278;28;20051;-43
2021/12/22 02:43:51;;;;;;;33.65;20.83;;;-3274.70;89.00;;;;;;5114517;28;20144;-44
2021/12/22 02:46:24;;;;;;;26.00;20.35;;;-3274.70;89.10;;;;;;5091709;28;20040;-46
2021/12/22 02:48:52;;;;;;;25.80;20.17;;;-3274.70;89.10;;;;;;5115370;28;20526;-49
2021/12/22 02:51:21;;;;;;;24.08;18.52;;;-3274.60;89.00;;;;;;5098234;28;20119;-43
2021/12/22 02:56:35;;;;;;;21.13;17.45;;;-3274.60;88.90;;;;;;5101274;28;20106;-42
2021/12/22 03:04:07;;;;;;;27.23;18.48;;;-3274.50;88.70;;;;;;5114127;28;20035;-43
2021/12/22 03:09:25;;;;;;;24.83;18.83;;;-3274.50;88.80;;;;;;5104177;28;20030;-45
2021/12/22 03:11:54;;;;;;;26.45;17.70;;;-3274.50;88.90;;;;;;5102589;28;20039;-45
2021/12/22 03:14:21;;;;;;;24.30;18.17;;;-3274.40;88.80;;;;;;5104835;28;20038;-45
2021/12/22 03:16:48;;;;;;;28.00;18.42;;;-3274.40;89.00;;;;;;5104394;28;20461;-44
2021/12/22 03:19:21;;;;;;;26.13;18.35;;;-3274.40;88.90;;;;;;5108159;28;20081;-44
2021/12/22 03:21:51;;;;;;;26.42;17.40;;;-3274.40;89.00;;;;;;5094991;28;20032;-42
2021/12/22 03:24:21;;;;;;;21.73;17.98;;;-3274.40;89.10;;;;;;5111804;28;20050;-42
2021/12/22 03:26:47;;;;;;;28.95;18.83;;;-3274.40;88.90;;;;;;5097341;28;20024;-42
2021/12/22 03:29:17;;;;;;;22.90;15.98;;;-3274.30;89.00;;;;;;5080911;28;20039;-45
2021/12/22 03:31:45;;;;;;;;;;;-3274.30;88.90;;;;;;5095252;28;20020;-43
2021/12/22 03:34:12;;;;;;;21.98;16.83;;;-3274.40;89.10;;;;;;5095847;28;19912;-46
2021/12/22 03:36:43;;;;;;;21.13;17.27;;;-3274.40;88.90;;;;;;5095016;28;20433;-46
2021/12/22 03:39:12;;;;;;;23.33;16.17;;;-3274.30;88.70;;;;;;5094742;28;20065;-42
2021/12/22 03:41:39;;;;;;;23.85;15.88;;;-3274.40;88.70;;;;;;5103873;28;20716;-42
2021/12/22 03:44:06;;;;;;;21.83;16.02;;;-3274.40;88.60;;;;;;5073052;28;20715;-45
2021/12/22 03:46:34;;;;;;;18.58;16.40;;;-3274.30;88.40;;;;;;5110791;28;20028;-43
2021/12/22 03:49:01;;;;;;;26.58;17.10;;;-3274.30;88.70;;;;;;5115049;28;20052;-44
2021/12/22 03:51:28;;;;;;;20.83;16.08;;;-3274.20;88.50;;;;;;5099386;28;20039;-43
2021/12/22 03:53:57;;;;;;;23.67;16.02;;;-3274.20;88.60;;;;;;5107073;28;20062;-44
2021/12/22 03:56:24;;;;;;;21.60;16.50;;;-3274.20;88.70;;;;;;5114088;28;20063;-42
2021/12/22 03:58:54;;;;;;;20.80;16.30;;;-3274.20;88.60;;;;;;5101972;28;20036;-42
2021/12/22 04:01:20;;;;;;;27.27;17.10;;;-3274.10;88.60;;;;;;5076443;28;20512;-44
2021/12/22 04:03:54;;;;;;;22.65;17.17;;;-3274.10;88.70;;;;;;5106287;28;20066;-45
2021/12/22 04:06:21;;;;;;;25.20;16.63;;;-3274.10;88.80;;;;;;5096458;28;20028;-42
2021/12/22 04:08:47;;;;;;;26.63;16.60;;;-3274.10;88.70;;;;;;5102485;28;20056;-42
2021/12/22 04:11:14;;;;;;;21.35;14.98;;;-3274.10;88.80;;;;;;5102247;28;20032;-46
2021/12/22 04:13:41;;;;;;;25.33;16.30;;;-3274.10;88.60;;;;;;5095394;28;20024;-43
2021/12/22 04:16:08;;;;;;;26.90;16.67;;;-3274.10;88.80;;;;;;5084100;28;20032;-44
2021/12/22 04:18:34;;;;;;;23.80;16.52;;;-3274.10;88.90;;;;;;5095449;28;20063;-44
2021/12/22 04:21:05;;;;;;;20.80;16.05;;;-3274.10;88.90;;;;;;5102736;28;20492;-45
2021/12/22 04:23:32;;;;;;;22.95;16.02;;;-3274.10;88.90;;;;;;5103838;28;20044;-49
2021/12/22 04:25:58;;;;;;;20.23;15.07;;;-3274.10;88.80;;;;;;5096014;28;20031;-44
2021/12/22 04:28:24;;;;;;;24.52;16.80;;;-3274.10;88.70;;;;;;5087437;28;20028;-44
2021/12/22 04:30:51;;;;;;;24.88;17.40;;;-3274.10;88.90;;;;;;5075883;28;20028;-43
2021/12/22 04:33:19;;;;;;;20.98;15.55;;;-3274.00;88.70;;;;;;5100987;28;20055;-47
2021/12/22 04:35:48;;;;;;;23.40;16.38;;;-3274.00;88.70;;;;;;5114146;28;20106;-45
2021/12/22 04:38:16;;;;;;;28.83;16.00;;;-3274.00;88.60;;;;;;5099344;28;20032;-47
2021/12/22 04:40:42;;;;;;;21.25;15.45;;;-3274.00;88.60;;;;;;5095235;28;20101;-48
2021/12/22 04:43:09;;;;;;;28.73;16.55;;;-3274.00;88.60;;;;;;5112576;28;20745;-44
2021/12/22 04:45:35;;;;;;;23.88;16.75;;;-3273.90;88.60;;;;;;5105618;28;20031;-46
2021/12/22 04:48:01;;;;;;;25.23;15.75;;;-3274.00;88.50;;;;;;5075554;28;20032;-43
2021/12/22 04:50:28;;;;;;;20.33;14.25;;;-3273.90;88.40;;;;;;5095872;28;20384;-42
2021/12/22 04:55:25;;;;;;;24.20;16.55;;;-3273.90;88.50;;;;;;5110403;28;20040;-43
2021/12/22 04:57:54;;;;;;;18.95;15.50;;;-3273.90;88.50;;;;;;5091007;28;20032;-42
2021/12/22 05:00:22;;;;;;;21.52;15.35;;;-3274.00;88.60;;;;;;5094176;28;20028;-46
2021/12/22 05:02:49;;;;;;;22.42;14.85;;;-3274.00;88.40;;;;;;5093173;28;20422;-48
2021/12/22 05:05:20;;;;;;;21.13;14.60;;;-3274.00;88.20;;;;;;5094501;28;20105;-44
2021/12/22 05:07:47;;;;;;;24.83;17.35;;;-3273.90;88.10;;;;;;5097195;28;20028;-43
2021/12/22 05:10:16;;;;;;;24.98;16.92;;;-3273.90;88.20;;;;;;5095860;28;20031;-43
2021/12/22 05:12:47;;;;;;;23.92;17.67;;;-3273.90;88.10;;;;;;5109296;28;20027;-44
2021/12/22 05:15:20;;;;;;;27.17;16.55;;;-3274.00;88.40;;;;;;5097032;28;20028;-42
2021/12/22 05:20:18;;;;;;;29.60;17.33;;;-3274.00;88.30;;;;;;5107295;28;20038;-44
2021/12/22 05:22:45;;;;;;;23.08;15.40;;;-3274.00;88.10;;;;;;5109898;28;20032;-43
2021/12/22 05:25:12;;;;;;;22.77;16.27;;;-3274.00;88.10;;;;;;5092781;28;20047;-44
2021/12/22 05:27:39;;;;;;;22.20;15.50;;;-3274.00;88.00;;;;;;5094707;28;20040;-43
2021/12/22 05:30:08;;;;;;;24.48;16.67;;;-3274.00;88.10;;;;;;5112899;28;20030;-45
2021/12/22 05:32:36;;;;;;;28.15;17.38;;;-3274.00;88.10;;;;;;5111456;28;20024;-44
2021/12/22 05:35:05;;;;;;;20.63;15.33;;;-3273.90;88.00;;;;;;5091832;28;20119;-45
2021/12/22 05:37:31;;;;;;;27.02;16.08;;;-3273.90;88.20;;;;;;5075327;28;20119;-44
2021/12/22 05:39:57;;;;;;;22.45;17.20;;;-3274.00;88.30;;;;;;5112296;28;20147;-44
2021/12/22 05:42:26;;;;;;;25.08;15.57;;;-3274.00;88.20;;;;;;5107618;28;20048;-45
2021/12/22 05:44:52;;;;;;;19.67;13.93;;;-3274.00;88.30;;;;;;5103656;28;20100;-45
2021/12/22 05:47:19;;;;;;;20.02;14.20;;;-3274.00;88.00;;;;;;5107436;28;20028;-42
2021/12/22 05:49:45;;;;;;;19.33;13.98;;;-3273.90;88.00;;;;;;5092118;28;20052;-43
2021/12/22 05:52:11;;;;;;;22.25;15.25;;;-3273.90;88.00;;;;;;5095370;28;20026;-42
2021/12/22 05:54:37;;;;;;;21.38;14.20;;;-3273.90;88.10;;;;;;5092758;28;20038;-43
2021/12/22 05:57:04;;;;;;;18.52;12.90;;;-3273.90;88.10;;;;;;5075561;28;20028;-42
2021/12/22 05:59:30;;;;;;;19.98;15.23;;;-3273.80;88.00;;;;;;5092665;28;20081;-45
2021/12/22 06:01:55;;;;;;;19.63;13.88;;;-3273.80;88.20;;;;;;5093189;28;20024;-42
2021/12/22 06:04:21;;;;;;;19.88;13.93;;;-3273.90;88.50;;;;;;5092255;28;20035;-43
2021/12/22 06:06:47;;;;;;;19.05;13.65;;;-3273.90;88.50;;;;;;5092035;28;20085;-43
2021/12/22 06:09:12;;;;;;;22.85;14.07;;;-3273.90;88.50;;;;;;5093273;28;20043;-44
2021/12/22 06:11:41;;;;;;;20.75;14.52;;;-3273.90;88.20;;;;;;5092197;28;20035;-48
2021/12/22 06:14:09;;;;;;;22.17;14.63;;;-3274.00;88.40;;;;;;5103174;28;20116;-45
2021/12/22 06:16:35;;;;;;;26.02;15.20;;;-3274.00;88.00;;;;;;5112266;28;20059;-43
2021/12/22 06:19:08;;;;;;;23.05;14.32;;;-3274.00;87.90;;;;;;5091403;28;20066;-44
2021/12/22 06:21:33;;;;;;;21.90;14.15;;;-3274.00;87.90;;;;;;5095888;28;20059;-45
2021/12/22 06:23:59;;;;;;;20.00;14.68;;;-3274.10;88.20;;;;;;5095725;28;20067;-44
2021/12/22 06:26:25;;;;;;;19.23;15.00;;;-3274.10;88.20;;;;;;5095775;28;20036;-46
2021/12/22 06:28:52;;;;;;;23.88;14.02;;;-3274.20;88.20;;;;;;5099552;28;20032;-45
2021/12/22 06:31:19;;;;;;;20.92;13.45;;;-3274.10;87.80;;;;;;5096023;28;20032;-43
2021/12/22 06:33:46;;;;;;;19.88;14.02;;;-3274.10;87.70;;;;;;5072275;28;20036;-45
2021/12/22 06:36:13;;;;;;;22.98;13.73;;;-3274.10;88.00;;;;;;5078285;28;20047;-45
2021/12/22 06:38:40;;;;;;;28.45;14.52;;;-3274.10;87.90;;;;;;5091663;28;20040;-42
2021/12/22 06:41:07;;;;;;;21.88;14.32;;;-3274.20;88.10;;;;;;5091707;28;20047;-46
2021/12/22 06:43:34;;;;;;;23.65;14.13;;;-3274.20;88.10;;;;;;5115599;28;20198;-41
2021/12/22 06:46:01;;;;;;;21.27;14.65;;;-3274.30;88.10;;;;;;5102711;28;20028;-47
2021/12/22 06:48:26;;;;;;;24.80;14.52;;;-3274.30;87.90;;;;;;5100447;28;20063;-45
2021/12/22 06:50:53;;;;;;;23.02;13.50;;;-3274.20;87.90;;;;;;5095894;28;20466;-47
2021/12/22 06:53:21;;;;;;;20.85;14.02;;;-3274.30;88.00;;;;;;5099939;28;20032;-42
2021/12/22 06:55:48;;;;;;;20.73;13.48;;;-3274.30;87.90;;;;;;5095759;28;20516;-44
2021/12/22 06:58:14;;;;;;;26.10;15.18;;;-3274.30;88.00;;;;;;5109285;28;20058;-42
2021/12/22 07:00:40;;;;;;;22.30;13.45;;;-3274.40;87.90;;;;;;5097749;28;20123;-43
2021/12/22 07:03:07;;;;;;;20.17;13.05;;;-3274.40;87.70;;;;;;5109798;28;20615;-45
2021/12/22 07:05:33;;;;;;;20.00;13.45;;;-3274.40;87.60;;;;;;5115482;28;20341;-47
2021/12/22 07:07:59;;;;;;;19.55;14.20;;;-3274.50;87.80;;;;;;5110273;28;20030;-46
2021/12/22 07:10:25;;;;;;;18.67;12.45;;;-3274.50;87.60;;;;;;5115685;28;20496;-43
2021/12/22 07:12:53;;;;;;;17.35;12.25;;;-3274.60;87.60;;;;;;5109748;28;20063;-42
2021/12/22 07:15:20;;;;;;;20.40;13.15;;;-3274.60;87.60;;;;;;5112942;28;20464;-44
2021/12/22 07:17:48;;;;;;;19.42;12.77;;;-3274.60;87.40;;;;;;5097325;28;20035;-42
2021/12/22 07:20:14;;;;;;;18.98;12.82;;;-3274.60;87.30;;;;;;5098591;28;20028;-44
2021/12/22 07:22:40;;;;;;;17.63;12.23;;;-3274.60;87.30;;;;;;5060903;28;20047;-43
2021/12/22 07:25:08;;;;;;;25.80;14.25;;;-3274.60;87.30;;;;;;5094846;28;20510;-43
2021/12/22 07:27:39;;;;;;;23.23;13.82;;;-3274.60;87.10;;;;;;5095210;28;20024;-46
2021/12/22 07:30:07;;;;;;;23.15;14.18;;;-3274.60;87.20;;;;;;5094780;28;20464;-46
2021/12/22 07:32:35;;;;;;;20.75;12.45;;;-3274.60;87.10;;;;;;5096236;28;20115;-44
2021/12/22 07:35:07;;;;;;;22.27;13.63;;;-3274.70;87.30;;;;;;5077417;28;20465;-47
2021/12/22 07:37:58;;;;;;;20.50;13.27;;;-3274.70;87.00;;;;;;5096528;28;20024;-47
2021/12/22 07:40:23;;;;;;;21.25;15.52;;;-3274.60;86.90;;;;;;5096846;28;20057;-42
2021/12/22 07:42:50;;;;;;;23.27;15.23;;;-3274.60;86.90;;;;;;5113487;28;20039;-43
2021/12/22 07:45:17;;;;;;;21.65;13.50;;;-3274.60;86.80;;;;;;5106297;28;20083;-48
2021/12/22 07:47:46;;;;;;;23.65;13.23;;;-3274.50;86.70;;;;;;5098817;28;20032;-44
2021/12/22 07:50:15;;;;;;;28.13;14.45;;;-3274.50;87.10;;;;;;5076442;28;20112;-43
2021/12/22 07:52:42;;;;;;;24.05;14.45;;;-3274.50;87.10;;;;;;5094680;28;20051;-44
2021/12/22 07:55:09;;;;;;;23.02;14.90;;;-3274.50;86.80;;;;;;5114412;28;20032;-45
2021/12/22 07:57:36;;;;;;;20.33;14.43;;;-3274.40;86.80;;;;;;5114110;28;20073;-43
2021/12/22 08:00:05;;;;;;;29.05;16.55;;;-3274.50;86.80;;;;;;5112016;28;20059;-42
2021/12/22 08:02:31;;;;;;;24.73;16.05;;;-3274.50;86.60;;;;;;5112525;28;20420;-44
2021/12/22 08:04:58;;;;;;;19.88;14.23;;;-3274.50;86.70;;;;;;5114029;28;20116;-43
2021/12/22 08:07:25;;;;;;;27.55;14.07;;;-3274.50;86.60;;;;;;5113479;28;20024;-45
2021/12/22 08:09:51;;;;;;;25.58;15.95;;;-3274.50;86.50;;;;;;5114347;28;20043;-46
2021/12/22 08:12:18;;;;;;;22.13;15.18;;;-3274.40;86.70;;;;;;5114518;28;20038;-45
2021/12/22 08:14:45;;;;;;;29.52;15.55;;;-3274.40;86.70;;;;;;5107956;28;20452;-42
2021/12/22 08:17:13;;;;;;;21.75;14.23;;;-3274.50;86.70;;;;;;5096319;28;20067;-42
2021/12/22 08:19:41;;;;;;;21.20;14.35;;;-3274.50;86.70;;;;;;5100613;28;20024;-46
2021/12/22 08:22:08;;;;;;;23.42;14.52;;;-3274.50;86.50;;;;;;5093888;28;20035;-43
2021/12/22 08:24:38;;;;;;;27.75;15.70;;;-3274.50;86.40;;;;;;5096142;28;20039;-45
2021/12/22 08:27:05;;;;;;;25.27;15.57;;;-3274.40;86.50;;;;;;5096339;28;20088;-43
2021/12/22 08:29:41;;;;;;;25.30;14.55;;;-3274.40;86.70;;;;;;5095002;28;20177;-43
2021/12/22 08:32:09;;;;;;;20.75;13.88;;;-3274.50;86.80;;;;;;5095285;28;20050;-43
2021/12/22 08:34:39;;;;;;;22.83;13.97;;;-3274.50;86.60;;;;;;5085666;28;20096;-46
2021/12/22 08:39:55;;;;;;;24.77;15.15;;;-3274.60;86.80;;;;;;5102313;28;20331;-45
2021/12/22 08:42:26;;;;;;;25.02;15.15;;;-3274.50;86.20;;;;;;5113355;28;20048;-45
2021/12/22 08:44:52;;;;;;;20.65;15.15;;;-3274.60;86.30;;;;;;5101572;28;20059;-43
2021/12/22 08:47:19;;;;;;;22.77;14.88;;;-3274.60;86.30;;;;;;5075922;28;20028;-43
2021/12/22 08:49:46;;;;;;;28.33;17.58;;;-3274.60;86.40;;;;;;5078484;28;20496;-44
2021/12/22 08:52:14;;;;;;;21.95;15.20;;;-3274.60;86.30;;;;;;5113990;28;20039;-43
2021/12/22 08:54:44;;;;;;;21.42;14.95;;;-3274.60;86.10;;;;;;5101640;28;20015;-43
2021/12/22 08:57:11;;;;;;;24.63;17.02;;;-3274.50;86.30;;;;;;5113187;28;20024;-46
2021/12/22 08:59:38;;;;;;;26.80;16.75;;;-3274.60;86.20;;;;;;5076050;28;20066;-44
2021/12/22 09:02:05;;;;;;;23.63;15.35;;;-3274.60;86.30;;;;;;5087869;28;20361;-42
2021/12/22 09:04:33;;;;;;;27.35;15.05;;;-3274.60;86.40;;;;;;5102279;28;20039;-46
2021/12/22 09:07:03;;;;;;;23.95;14.32;;;-3274.70;86.10;;;;;;5075377;28;20039;-44
2021/12/22 09:09:30;;;;;;;21.95;15.10;;;-3274.80;86.10;;;;;;5111530;28;20420;-43
2021/12/22 09:11:57;;;;;;;24.20;15.70;;;-3274.80;86.00;;;;;;5113042;28;20110;-44
2021/12/22 09:14:24;;;;;;;20.45;14.73;;;-3275.00;86.20;;;;;;5116540;28;20042;-49
2021/12/22 09:16:54;;;;;;;22.33;15.60;;;-3274.90;85.80;;;;;;5097497;28;20105;-43
2021/12/22 09:19:20;;;;;;;26.98;15.32;;;-3275.00;85.70;;;;;;5094116;28;20077;-45
2021/12/22 09:21:46;;;;;;;24.55;16.63;;;-3275.10;85.80;;;;;;5093028;28;20040;-45
2021/12/22 09:24:13;;;;;;;23.42;15.32;;;-3275.00;84.80;;;;;;5093221;28;20024;-45
2021/12/22 09:26:39;;;;;;;22.58;16.60;;;-3275.00;85.10;;;;;;5075061;28;20032;-44
2021/12/22 09:29:06;;;;;;;23.77;16.00;;;-3275.00;85.00;;;;;;5107282;28;20088;-47
2021/12/22 09:31:33;;;;;;;28.88;17.52;;;-3275.00;84.90;;;;;;5113372;28;20043;-47
2021/12/22 09:34:00;;;;;;;24.80;16.50;;;-3274.90;84.80;;;;;;5098871;28;20032;-45
2021/12/22 09:36:28;;;;;;;25.95;16.02;;;-3274.80;84.90;;;;;;5093035;28;20035;-44
2021/12/22 09:38:54;;;;;;;23.98;16.00;;;-3274.80;85.30;;;;;;5075602;28;20040;-43
2021/12/22 09:41:21;;;;;;;28.70;15.63;;;-3274.90;85.50;;;;;;5083921;28;20048;-45
2021/12/22 09:43:46;;;;;;;28.20;17.50;;;-3274.90;85.30;;;;;;5104485;28;20101;-43
2021/12/22 09:46:18;;;;;;;34.13;20.42;;;-3274.90;85.30;;;;;;5111846;28;20027;-44
2021/12/22 09:53:53;;;;;;;25.65;16.80;;;-3274.90;84.90;;;;;;5097718;28;20115;-45
2021/12/22 09:56:24;;;;;;;27.92;19.35;;;-3274.90;85.30;;;;;;5096611;28;20023;-42
2021/12/22 09:58:52;;;;;;;30.73;18.17;;;-3274.90;85.60;;;;;;5108338;28;20043;-43
2021/12/22 10:01:23;;;;;;;24.75;17.58;;;-3275.00;85.30;;;;;;5116942;28;20119;-44
2021/12/22 10:03:51;;;;;;;32.53;18.60;;;-3275.10;85.40;;;;;;5103979;28;20111;-43
2021/12/22 10:06:18;;;;;;;25.98;17.77;;;-3275.00;85.50;;;;;;5097461;28;20027;-45
2021/12/22 10:09:04;;;;;;;24.52;17.75;;;-3275.10;85.70;;;;;;5087536;28;20039;-43
2021/12/22 10:11:36;;;;;;;24.70;17.05;;;-3275.00;85.60;;;;;;5099311;28;20016;-42
2021/12/22 10:14:16;;;;;;;26.08;17.55;;;-3275.00;85.60;;;;;;5075250;28;20088;-45
2021/12/22 10:16:51;;;;;;;25.73;17.13;;;-3275.10;85.90;;;;;;5097460;28;20072;-45
2021/12/22 10:19:19;;;;;;;24.63;16.35;;;-3275.10;85.70;;;;;;5097429;28;20024;-43
2021/12/22 10:22:18;;;;;;;25.35;17.60;;;-3275.10;85.90;;;;;;5078734;28;20112;-44
2021/12/22 10:24:47;;;;;;;21.95;16.17;;;-3275.10;85.90;;;;;;5088256;28;20035;-42
2021/12/22 10:27:22;;;;;;;25.95;16.63;;;-3275.20;85.90;;;;;;5116743;28;20020;-42
2021/12/22 10:29:48;;;;;;;22.77;15.70;;;-3275.20;85.90;;;;;;5096061;28;20027;-45
2021/12/22 10:32:16;;;;;;;26.98;18.48;;;-3275.30;85.90;;;;;;5092694;28;20028;-45
2021/12/22 10:35:03;;;;;;;24.55;17.25;;;-3275.30;85.90;;;;;;5116418;28;20075;-43
2021/12/22 10:37:47;;;;;;;26.05;17.33;;;-3275.20;85.60;;;;;;5101536;28;20077;-44
2021/12/22 10:40:28;;;;;;;23.00;16.40;;;-3275.30;86.00;;;;;;5108235;28;20031;-47
2021/12/22 10:42:55;;;;;;;25.40;17.70;;;-3275.20;86.00;;;;;;5115025;28;20161;-43
2021/12/22 10:45:27;;;;;;;27.95;17.58;;;-3275.30;86.20;;;;;;5100981;28;20059;-42
2021/12/22 10:50:57;;;;;;;24.85;16.58;;;-3275.40;86.00;;;;;;5095811;28;20039;-44
2021/12/22 10:53:28;;;;;;;25.77;17.30;;;-3275.40;86.10;;;;;;5098398;28;20031;-44
2021/12/22 10:55:57;;;;;;;23.85;16.80;;;-3275.40;86.00;;;;;;5095815;28;20046;-46
2021/12/22 10:58:34;;;;;;;22.42;17.73;;;-3275.50;86.00;;;;;;5100501;28;20489;-47
2021/12/22 11:01:11;;;;;;;23.75;16.75;;;-3275.50;85.90;;;;;;5096826;28;20036;-42
2021/12/22 11:04:03;;;;;;;23.52;16.23;;;-3275.40;85.60;;;;;;5076488;28;20040;-44
2021/12/22 11:06:31;;;;;;;26.42;18.23;;;-3275.40;86.00;;;;;;5113944;28;20371;-43
2021/12/22 11:09:16;;;;;;;25.90;18.77;;;-3275.50;86.20;;;;;;5114549;28;20104;-44
2021/12/22 11:12:01;;;;;;;25.80;18.17;;;-3275.40;86.10;;;;;;5115635;28;20012;-46
2021/12/22 11:14:35;;;;;;;25.63;17.85;;;-3275.40;86.50;;;;;;5105651;28;20023;-41
2021/12/22 11:17:10;;;;;;;24.52;16.98;;;-3275.50;86.60;;;;;;5095288;28;20097;-45
2021/12/22 11:20:01;;;;;;;27.63;20.27;;;-3275.50;86.90;;;;;;5087439;28;20043;-44
2021/12/22 11:25:31;;;;;;;22.25;17.50;;;-3275.50;86.60;;;;;;5115825;28;20035;-47
2021/12/22 11:27:58;;;;;;;27.92;19.08;;;-3275.60;86.80;;;;;;5100255;28;20036;-43
2021/12/22 11:30:27;;;;;;;26.13;17.60;;;-3275.70;86.70;;;;;;5086668;28;20028;-42
2021/12/22 11:32:57;;;;;;;31.97;20.40;;;-3275.70;86.60;;;;;;5110673;28;20107;-43
2021/12/22 11:35:26;;;;;;;27.50;20.63;;;-3275.80;86.90;;;;;;5094616;28;20036;-42
2021/12/22 11:37:55;;;;;;;26.38;18.52;;;-3275.90;86.70;;;;;;5099206;28;20039;-43
2021/12/22 11:40:22;;;;;;;26.15;18.13;;;-3275.90;86.70;;;;;;5114557;28;20043;-46
2021/12/22 11:42:49;;;;;;;27.05;19.30;;;-3276.00;86.50;;;;;;5113925;28;20513;-42
2021/12/22 11:45:21;;;;;;;29.73;19.02;;;-3276.00;86.40;;;;;;5105686;28;20357;-42
2021/12/22 11:47:53;;;;;;;30.58;19.05;;;-3276.10;86.40;;;;;;5109921;28;20035;-42
2021/12/22 11:50:28;;;;;;;28.13;19.63;;;-3276.20;86.30;;;;;;5094487;28;20453;-43
2021/12/22 11:53:02;;;;;;;29.77;19.30;;;-3276.20;86.10;;;;;;5094406;28;20595;-44
2021/12/22 11:55:51;;;;;;;26.40;19.90;;;-3276.20;86.00;;;;;;5076528;28;20032;-45
2021/12/22 11:58:32;;;;;;;27.20;19.52;;;-3276.10;86.10;;;;;;5084481;28;20047;-44
2021/12/22 12:01:08;;;;;;;31.75;19.33;;;-3276.10;86.40;;;;;;5097592;28;20453;-47
2021/12/22 12:03:45;;;;;;;29.90;19.92;;;-3276.20;86.50;;;;;;5110703;28;20110;-45
2021/12/22 12:06:21;;;;;;;26.15;16.50;;;-3276.20;86.30;;;;;;5114622;28;20019;-46
2021/12/22 12:08:57;;;;;;;29.80;20.35;;;-3276.30;86.50;;;;;;5101640;28;20365;-49
2021/12/22 12:11:38;;;;;;;26.52;17.77;;;-3276.30;86.60;;;;;;5094179;28;20016;-44
2021/12/22 12:14:11;;;;;;;29.30;19.58;;;-3276.30;86.60;;;;;;5108144;28;20479;-44
2021/12/22 12:22:44;;;;;;;32.05;19.42;;;-3276.40;86.60;;;;;;5095755;28;20192;-44
2021/12/22 12:25:14;;;;;;;29.00;20.15;;;-3276.40;86.50;;;;;;5110759;28;20189;-44
2021/12/22 12:27:51;;;;;;;31.48;20.42;;;-3276.40;86.70;;;;;;5076461;28;20103;-45
2021/12/22 12:30:49;;;;;;;30.90;20.08;;;-3276.40;86.60;;;;;;5078863;28;20218;-43
2021/12/22 12:33:30;;;;;;;30.05;19.55;;;-3276.50;86.60;;;;;;5091121;28;20053;-47
2021/12/22 12:36:04;;;;;;;30.67;21.20;;;-3276.60;86.60;;;;;;5113747;28;20035;-44
2021/12/22 12:38:51;;;;;;;32.33;21.45;;;-3276.60;86.40;;;;;;5091749;28;20537;-43
2021/12/22 12:41:28;;;;;;;34.42;22.45;;;-3276.60;86.50;;;;;;5094232;28;20150;-43
2021/12/22 12:43:58;;;;;;;34.25;21.08;;;-3276.60;86.40;;;;;;5113919;28;20038;-46
2021/12/22 12:46:38;;;;;;;35.17;23.00;;;-3276.70;86.50;;;;;;5113237;28;20040;-47
2021/12/22 12:49:12;;;;;;;42.65;24.58;;;-3276.70;86.70;;;;;;5113713;28;20016;-47
2021/12/22 12:51:57;;;;;;;40.10;25.17;;;-3276.70;86.70;;;;;;5103763;28;20361;-44